createdAt,value
2022-10-18T00:00:25.378Z,0.00
2022-10-18T00:01:25.354Z,0.00
2022-10-18T00:02:25.405Z,0.00
2022-10-18T00:03:25.328Z,0.00
2022-10-18T00:04:25.323Z,0.00
2022-10-18T00:05:25.325Z,0.00
2022-10-18T00:06:25.306Z,0.00
2022-10-18T00:07:25.286Z,0.00
2022-10-18T00:08:25.277Z,0.00
2022-10-18T00:09:25.279Z,0.00
2022-10-18T00:10:25.260Z,0.00
2022-10-18T00:11:25.252Z,0.00
2022-10-18T00:12:25.232Z,0.00
2022-10-18T00:13:25.292Z,0.00
2022-10-18T00:14:25.214Z,0.00
2022-10-18T00:15:25.210Z,0.00
2022-10-18T00:16:25.196Z,0.00
2022-10-18T00:17:25.183Z,0.00
2022-10-18T00:18:25.233Z,0.00
2022-10-18T00:19:28.494Z,0.00
2022-10-18T00:20:25.136Z,0.00
2022-10-18T00:21:25.137Z,0.00
2022-10-18T00:22:25.128Z,0.00
2022-10-18T00:23:25.114Z,0.00
2022-10-18T00:24:25.111Z,0.00
2022-10-18T00:25:25.092Z,0.00
2022-10-18T00:26:25.085Z,0.00
2022-10-18T00:27:25.063Z,0.00
2022-10-18T00:28:25.101Z,0.00
2022-10-18T00:29:25.052Z,0.00
2022-10-18T00:30:25.037Z,0.00
2022-10-18T00:31:25.023Z,0.00
2022-10-18T00:32:25.007Z,0.00
2022-10-18T00:33:25.015Z,0.00
2022-10-18T00:34:24.995Z,0.00
2022-10-18T00:35:24.987Z,0.00
2022-10-18T00:36:24.977Z,0.00
2022-10-18T00:37:24.949Z,0.00
2022-10-18T00:38:24.958Z,0.00
2022-10-18T00:39:24.926Z,0.00
2022-10-18T00:40:24.927Z,0.00
2022-10-18T00:41:24.910Z,0.00
2022-10-18T00:42:24.906Z,0.00
2022-10-18T00:43:24.886Z,0.00
2022-10-18T00:44:24.877Z,0.00
2022-10-18T00:45:24.868Z,0.00
2022-10-18T00:46:24.855Z,0.00
2022-10-18T00:47:24.851Z,0.00
2022-10-18T00:48:24.866Z,0.00
2022-10-18T00:49:24.911Z,0.00
2022-10-18T00:50:24.833Z,0.00
2022-10-18T00:51:24.804Z,0.00
2022-10-18T00:52:24.795Z,0.00
2022-10-18T00:53:24.797Z,0.00
2022-10-18T00:54:24.780Z,0.00
2022-10-18T00:55:24.769Z,0.00
2022-10-18T00:56:24.755Z,0.00
2022-10-18T00:57:24.736Z,0.00
2022-10-18T00:58:24.742Z,0.00
2022-10-18T00:59:24.718Z,0.00
2022-10-18T01:00:24.714Z,0.00
2022-10-18T01:01:28.255Z,0.00
2022-10-18T01:02:24.687Z,0.00
2022-10-18T01:03:24.678Z,0.00
2022-10-18T01:04:24.644Z,0.00
2022-10-18T01:05:24.657Z,0.00
2022-10-18T01:06:24.647Z,0.00
2022-10-18T01:07:24.633Z,0.00
2022-10-18T01:08:24.599Z,0.00
2022-10-18T01:09:24.610Z,0.00
2022-10-18T01:10:24.590Z,0.00
2022-10-18T01:11:24.592Z,0.00
2022-10-18T01:12:24.558Z,0.00
2022-10-18T01:13:25.822Z,0.00
2022-10-18T01:14:24.555Z,0.00
2022-10-18T01:15:24.536Z,0.00
2022-10-18T01:16:24.534Z,0.00
2022-10-18T01:17:24.529Z,0.00
2022-10-18T01:18:24.500Z,0.00
2022-10-18T01:19:24.516Z,0.00
2022-10-18T01:20:24.690Z,0.00
2022-10-18T01:21:24.468Z,0.00
2022-10-18T01:22:24.472Z,0.00
2022-10-18T01:23:24.451Z,0.00
2022-10-18T01:24:24.446Z,0.00
2022-10-18T01:25:24.443Z,0.00
2022-10-18T01:26:24.408Z,0.00
2022-10-18T01:27:24.409Z,0.00
2022-10-18T01:28:24.446Z,0.00
2022-10-18T01:29:24.397Z,0.00
2022-10-18T01:30:24.386Z,0.00
2022-10-18T01:31:24.360Z,0.00
2022-10-18T01:32:24.350Z,0.00
2022-10-18T01:33:24.362Z,0.00
2022-10-18T01:34:24.324Z,0.00
2022-10-18T01:35:24.319Z,0.00
2022-10-18T01:36:24.307Z,0.00
2022-10-18T01:37:24.292Z,0.00
2022-10-18T01:38:24.282Z,0.00
2022-10-18T01:39:24.273Z,0.00
2022-10-18T01:40:24.279Z,0.00
2022-10-18T01:41:24.252Z,0.00
2022-10-18T01:42:24.231Z,0.00
2022-10-18T01:43:24.227Z,0.00
2022-10-18T01:44:24.203Z,0.00
2022-10-18T01:45:24.211Z,0.00
2022-10-18T01:46:24.201Z,0.00
2022-10-18T01:47:24.197Z,0.00
2022-10-18T01:48:24.172Z,0.00
2022-10-18T01:49:24.153Z,0.00
2022-10-18T01:50:24.146Z,0.00
2022-10-18T01:51:24.191Z,0.00
2022-10-18T01:52:24.139Z,0.00
2022-10-18T01:53:24.118Z,0.00
2022-10-18T01:54:24.109Z,0.00
2022-10-18T01:55:24.085Z,0.00
2022-10-18T01:56:24.081Z,0.00
2022-10-18T01:57:24.070Z,0.00
2022-10-18T01:58:24.063Z,0.00
2022-10-18T01:59:24.054Z,0.00
2022-10-18T02:00:24.056Z,0.00
2022-10-18T02:01:24.022Z,0.00
2022-10-18T02:02:24.029Z,0.00
2022-10-18T02:03:24.019Z,0.00
2022-10-18T02:04:24.018Z,0.00
2022-10-18T02:05:24.001Z,0.00
2022-10-18T02:06:23.988Z,0.00
2022-10-18T02:07:23.968Z,0.00
2022-10-18T02:08:24.201Z,0.00
2022-10-18T02:09:23.936Z,0.00
2022-10-18T02:10:23.928Z,0.00
2022-10-18T02:11:23.914Z,0.00
2022-10-18T02:12:23.899Z,0.00
2022-10-18T02:13:23.905Z,0.00
2022-10-18T02:14:23.894Z,0.00
2022-10-18T02:15:23.867Z,0.00
2022-10-18T02:16:23.861Z,0.00
2022-10-18T02:17:23.859Z,0.00
2022-10-18T02:18:23.843Z,0.00
2022-10-18T02:20:23.814Z,0.00
2022-10-18T02:21:23.813Z,0.00
2022-10-18T02:22:23.997Z,0.00
2022-10-18T02:23:23.785Z,0.00
2022-10-18T02:24:23.771Z,0.00
2022-10-18T02:25:23.764Z,0.00
2022-10-18T02:26:23.749Z,0.00
2022-10-18T02:27:23.755Z,0.00
2022-10-18T02:29:23.723Z,0.00
2022-10-18T02:30:23.713Z,0.00
2022-10-18T02:31:23.705Z,0.00
2022-10-18T02:32:23.677Z,0.00
2022-10-18T02:33:23.689Z,0.00
2022-10-18T02:34:23.659Z,0.00
2022-10-18T02:35:23.660Z,0.00
2022-10-18T02:36:23.632Z,0.00
2022-10-18T02:37:23.680Z,0.00
2022-10-18T02:38:23.608Z,0.00
2022-10-18T02:39:23.604Z,0.00
2022-10-18T02:40:23.600Z,0.00
2022-10-18T02:41:23.580Z,0.00
2022-10-18T02:42:23.567Z,0.00
2022-10-18T02:43:23.569Z,0.00
2022-10-18T02:44:23.560Z,0.00
2022-10-18T02:45:23.540Z,0.00
2022-10-18T02:46:23.595Z,0.00
2022-10-18T02:47:23.517Z,0.00
2022-10-18T02:48:23.529Z,0.00
2022-10-18T02:49:23.499Z,0.00
2022-10-18T02:50:23.481Z,0.00
2022-10-18T02:51:23.477Z,0.00
2022-10-18T02:52:23.459Z,0.00
2022-10-18T02:53:23.761Z,0.00
2022-10-18T02:54:23.444Z,0.00
2022-10-18T02:55:23.484Z,0.00
2022-10-18T02:56:23.472Z,0.00
2022-10-18T02:57:23.408Z,0.00
2022-10-18T02:58:23.399Z,0.00
2022-10-18T02:59:23.396Z,0.00
2022-10-18T03:00:23.386Z,0.00
2022-10-18T03:01:23.409Z,0.00
2022-10-18T03:02:23.349Z,0.00
2022-10-18T03:03:23.352Z,0.00
2022-10-18T03:04:23.384Z,0.00
2022-10-18T03:05:23.322Z,0.00
2022-10-18T03:06:23.304Z,0.00
2022-10-18T03:07:23.320Z,0.00
2022-10-18T03:08:23.283Z,0.00
2022-10-18T03:09:23.275Z,0.00
2022-10-18T03:10:23.268Z,0.00
2022-10-18T03:11:23.260Z,0.00
2022-10-18T03:12:23.229Z,0.00
2022-10-18T03:13:23.280Z,0.00
2022-10-18T03:14:23.222Z,0.00
2022-10-18T03:15:23.362Z,0.00
2022-10-18T03:16:23.194Z,0.00
2022-10-18T03:17:23.195Z,0.00
2022-10-18T03:18:23.187Z,0.00
2022-10-18T03:19:23.168Z,0.00
2022-10-18T03:20:23.149Z,0.00
2022-10-18T03:21:23.139Z,0.00
2022-10-18T03:22:23.143Z,0.00
2022-10-18T03:23:23.126Z,0.00
2022-10-18T03:24:23.308Z,0.00
2022-10-18T03:25:23.110Z,0.00
2022-10-18T03:26:23.109Z,0.00
2022-10-18T03:27:23.086Z,0.00
2022-10-18T03:28:23.188Z,0.00
2022-10-18T03:29:23.068Z,0.00
2022-10-18T03:30:23.100Z,0.00
2022-10-18T03:31:23.055Z,0.00
2022-10-18T03:32:23.025Z,0.00
2022-10-18T03:33:23.012Z,0.00
2022-10-18T03:34:23.007Z,0.00
2022-10-18T03:35:23.013Z,0.00
2022-10-18T03:36:22.981Z,0.00
2022-10-18T03:37:22.972Z,0.00
2022-10-18T03:38:22.955Z,0.00
2022-10-18T03:39:22.944Z,0.00
2022-10-18T03:40:22.975Z,0.00
2022-10-18T03:41:22.932Z,0.00
2022-10-18T03:42:22.914Z,0.00
2022-10-18T03:43:22.915Z,0.00
2022-10-18T03:44:22.885Z,0.00
2022-10-18T03:45:26.322Z,0.00
2022-10-18T03:46:23.870Z,0.00
2022-10-18T03:47:22.863Z,0.00
2022-10-18T03:48:22.850Z,0.00
2022-10-18T03:49:22.876Z,0.00
2022-10-18T03:50:22.817Z,0.00
2022-10-18T03:51:22.818Z,0.00
2022-10-18T03:52:22.794Z,0.00
2022-10-18T03:53:22.926Z,0.00
2022-10-18T03:54:22.787Z,0.00
2022-10-18T03:55:23.372Z,0.00
2022-10-18T03:56:22.763Z,0.00
2022-10-18T03:57:22.764Z,0.00
2022-10-18T03:58:22.803Z,0.00
2022-10-18T03:59:22.737Z,0.00
2022-10-18T04:00:22.713Z,0.00
2022-10-18T04:01:22.740Z,0.00
2022-10-18T04:02:22.684Z,0.00
2022-10-18T04:03:22.701Z,0.00
2022-10-18T04:04:22.668Z,0.00
2022-10-18T04:05:22.664Z,0.00
2022-10-18T04:06:22.634Z,0.00
2022-10-18T04:07:22.632Z,0.00
2022-10-18T04:08:22.622Z,0.00
2022-10-18T04:09:22.625Z,0.00
2022-10-18T04:10:22.609Z,0.00
2022-10-18T04:11:22.601Z,0.00
2022-10-18T04:12:22.592Z,0.00
2022-10-18T04:13:22.583Z,0.00
2022-10-18T04:14:22.575Z,0.00
2022-10-18T04:15:22.559Z,0.00
2022-10-18T04:16:22.541Z,0.00
2022-10-18T04:17:22.527Z,0.00
2022-10-18T04:18:22.512Z,0.00
2022-10-18T04:19:22.508Z,0.00
2022-10-18T04:20:22.491Z,0.00
2022-10-18T04:21:22.506Z,0.00
2022-10-18T04:22:22.457Z,0.00
2022-10-18T04:23:22.463Z,0.00
2022-10-18T04:24:22.455Z,0.00
2022-10-18T04:25:22.436Z,0.00
2022-10-18T04:26:22.515Z,0.00
2022-10-18T04:27:22.419Z,0.00
2022-10-18T04:28:22.411Z,0.00
2022-10-18T04:29:22.400Z,0.00
2022-10-18T04:30:22.385Z,0.00
2022-10-18T04:31:22.372Z,0.00
2022-10-18T04:32:22.396Z,0.00
2022-10-18T04:33:22.359Z,0.00
2022-10-18T04:34:22.355Z,0.00
2022-10-18T04:35:22.327Z,0.00
2022-10-18T04:36:22.327Z,0.00
2022-10-18T04:37:22.308Z,0.00
2022-10-18T04:38:22.300Z,0.00
2022-10-18T04:39:22.291Z,0.00
2022-10-18T04:40:22.293Z,0.00
2022-10-18T04:41:22.269Z,0.00
2022-10-18T04:42:22.264Z,0.00
2022-10-18T04:43:22.241Z,0.00
2022-10-18T04:44:22.232Z,0.00
2022-10-18T04:45:22.224Z,0.00
2022-10-18T04:46:22.218Z,0.00
2022-10-18T04:47:22.196Z,0.00
2022-10-18T04:48:22.206Z,0.00
2022-10-18T04:49:22.182Z,0.00
2022-10-18T04:50:22.158Z,0.00
2022-10-18T04:51:22.154Z,0.00
2022-10-18T04:52:22.140Z,0.00
2022-10-18T04:53:22.155Z,0.00
2022-10-18T04:54:23.955Z,0.00
2022-10-18T04:55:22.109Z,0.00
2022-10-18T04:56:22.115Z,0.00
2022-10-18T04:57:22.172Z,0.00
2022-10-18T04:58:23.040Z,0.00
2022-10-18T04:59:22.078Z,0.00
2022-10-18T05:00:22.060Z,0.00
2022-10-18T05:01:22.083Z,0.00
2022-10-18T05:02:22.033Z,0.00
2022-10-18T05:03:22.038Z,0.00
2022-10-18T05:04:22.021Z,0.00
2022-10-18T05:05:23.155Z,0.00
2022-10-18T05:06:21.991Z,0.00
2022-10-18T05:07:21.992Z,0.00
2022-10-18T05:08:21.973Z,0.00
2022-10-18T05:09:21.969Z,0.00
2022-10-18T05:10:21.950Z,0.00
2022-10-18T05:11:21.949Z,0.00
2022-10-18T05:12:21.932Z,0.00
2022-10-18T05:13:21.923Z,0.00
2022-10-18T05:14:21.905Z,0.00
2022-10-18T05:15:21.901Z,0.00
2022-10-18T05:16:21.890Z,0.00
2022-10-18T05:17:21.873Z,0.00
2022-10-18T05:18:21.854Z,0.00
2022-10-18T05:19:21.861Z,0.00
2022-10-18T05:20:21.872Z,0.00
2022-10-18T05:21:21.822Z,0.00
2022-10-18T05:22:21.823Z,0.00
2022-10-18T05:23:21.815Z,0.00
2022-10-18T05:24:24.149Z,0.00
2022-10-18T05:25:22.790Z,0.00
2022-10-18T05:26:21.773Z,0.00
2022-10-18T05:27:21.759Z,0.00
2022-10-18T05:28:38.650Z,0.00
2022-10-18T05:29:22.859Z,0.00
2022-10-18T05:30:21.733Z,0.00
2022-10-18T05:31:21.708Z,0.00
2022-10-18T05:32:21.711Z,0.00
2022-10-18T05:33:21.708Z,0.00
2022-10-18T05:34:21.683Z,0.00
2022-10-18T05:35:21.693Z,0.00
2022-10-18T05:36:21.663Z,0.00
2022-10-18T05:37:26.095Z,0.00
2022-10-18T05:38:22.684Z,0.00
2022-10-18T05:39:21.624Z,0.00
2022-10-18T05:40:21.624Z,4.00
2022-10-18T05:41:21.616Z,4.00
2022-10-18T05:42:21.601Z,4.00
2022-10-18T05:43:21.576Z,0.00
2022-10-18T05:44:21.583Z,4.00
2022-10-18T05:45:21.574Z,4.00
2022-10-18T05:46:21.544Z,4.00
2022-10-18T05:47:21.603Z,4.00
2022-10-18T05:48:21.523Z,8.00
2022-10-18T05:49:21.514Z,8.00
2022-10-18T05:50:21.514Z,8.00
2022-10-18T05:51:21.506Z,8.00
2022-10-18T05:52:21.477Z,8.00
2022-10-18T05:53:37.850Z,8.00
2022-10-18T05:54:22.461Z,8.00
2022-10-18T05:55:21.460Z,12.00
2022-10-18T05:56:21.451Z,8.00
2022-10-18T05:57:21.457Z,12.00
2022-10-18T05:58:21.428Z,12.00
2022-10-18T05:59:22.332Z,12.00
2022-10-18T06:00:21.406Z,12.00
2022-10-18T06:01:21.391Z,16.00
2022-10-18T06:02:21.440Z,12.00
2022-10-18T06:03:21.369Z,12.00
2022-10-18T06:04:21.358Z,16.00
2022-10-18T06:05:21.547Z,16.00
2022-10-18T06:06:21.539Z,16.00
2022-10-18T06:07:21.308Z,16.00
2022-10-18T06:08:21.319Z,20.00
2022-10-18T06:09:21.310Z,20.00
2022-10-18T06:10:21.297Z,20.00
2022-10-18T06:11:21.277Z,28.00
2022-10-18T06:12:21.264Z,24.00
2022-10-18T06:13:21.265Z,28.00
2022-10-18T06:14:21.261Z,28.00
2022-10-18T06:15:21.544Z,28.00
2022-10-18T06:16:21.310Z,28.00
2022-10-18T06:17:21.198Z,20.00
2022-10-18T06:18:21.206Z,20.00
2022-10-18T06:19:21.207Z,24.00
2022-10-18T06:20:21.368Z,28.00
2022-10-18T06:21:21.159Z,32.00
2022-10-18T06:22:21.155Z,40.00
2022-10-18T06:23:21.151Z,40.00
2022-10-18T06:24:21.131Z,48.00
2022-10-18T06:25:21.152Z,60.00
2022-10-18T06:26:21.110Z,68.00
2022-10-18T06:27:21.364Z,76.00
2022-10-18T06:28:21.091Z,88.00
2022-10-18T06:29:21.078Z,96.00
2022-10-18T06:30:21.239Z,112.00
2022-10-18T06:31:21.064Z,132.00
2022-10-18T06:32:21.042Z,156.00
2022-10-18T06:33:21.041Z,176.00
2022-10-18T06:34:21.033Z,200.00
2022-10-18T06:35:21.009Z,228.00
2022-10-18T06:36:20.994Z,256.00
2022-10-18T06:37:20.992Z,288.00
2022-10-18T06:38:20.977Z,320.00
2022-10-18T06:39:20.976Z,344.00
2022-10-18T06:40:20.969Z,360.00
2022-10-18T06:41:20.968Z,356.00
2022-10-18T06:42:22.690Z,344.00
2022-10-18T06:43:21.610Z,324.00
2022-10-18T06:44:20.918Z,304.00
2022-10-18T06:45:20.909Z,292.00
2022-10-18T06:46:20.941Z,288.00
2022-10-18T06:47:20.893Z,300.00
2022-10-18T06:48:20.912Z,312.00
2022-10-18T06:49:21.333Z,324.00
2022-10-18T06:50:20.844Z,332.00
2022-10-18T06:51:20.832Z,344.00
2022-10-18T06:52:20.927Z,356.00
2022-10-18T06:53:20.830Z,360.00
2022-10-18T06:54:20.810Z,368.00
2022-10-18T06:55:20.801Z,380.00
2022-10-18T06:56:20.792Z,404.00
2022-10-18T07:00:08.418Z,512.00
2022-10-18T07:00:57.718Z,540.00
2022-10-18T07:01:55.597Z,556.00
2022-10-18T07:02:57.389Z,580.00
2022-10-18T07:03:56.600Z,592.00
2022-10-18T07:04:55.563Z,612.00
2022-10-18T07:05:55.217Z,660.00
2022-10-18T07:06:56.302Z,728.00
2022-10-18T07:07:56.485Z,820.00
2022-10-18T07:08:55.393Z,932.00
2022-10-18T07:09:54.903Z,1056.00
2022-10-18T07:10:55.257Z,1168.00
2022-10-18T07:11:55.117Z,1252.00
2022-10-18T07:13:07.990Z,1304.00
2022-10-18T07:13:56.368Z,1336.00
2022-10-18T07:14:55.115Z,1360.00
2022-10-18T07:15:55.915Z,1396.00
2022-10-18T07:16:54.901Z,1452.00
2022-10-18T07:17:55.165Z,1520.00
2022-10-18T07:18:55.157Z,1588.00
2022-10-18T07:19:55.973Z,1652.00
2022-10-18T07:20:54.962Z,1704.00
2022-10-18T07:21:55.185Z,1764.00
2022-10-18T07:22:55.701Z,1852.00
2022-10-18T07:23:55.757Z,1972.00
2022-10-18T07:24:55.306Z,2132.00
2022-10-18T07:25:55.548Z,2340.00
2022-10-18T07:26:55.301Z,2580.00
2022-10-18T07:27:56.523Z,2804.00
2022-10-18T07:28:55.429Z,2980.00
2022-10-18T07:29:55.844Z,2988.00
2022-10-18T07:30:55.428Z,2808.00
2022-10-18T07:31:57.951Z,2484.00
2022-10-18T07:33:20.877Z,2152.00
2022-10-18T07:33:55.784Z,1876.00
2022-10-18T07:34:56.955Z,1656.00
2022-10-18T07:36:04.599Z,1488.00
2022-10-18T07:36:56.170Z,1368.00
2022-10-18T07:38:18.277Z,1268.00
2022-10-18T07:39:06.797Z,1184.00
2022-10-18T07:44:30.099Z,984.00
2022-10-18T07:45:30.621Z,988.00
2022-10-18T07:47:04.624Z,988.00
2022-10-18T07:47:35.438Z,972.00
2022-10-18T07:51:13.302Z,832.00
2022-10-18T07:52:11.850Z,816.00
2022-10-18T07:53:12.625Z,848.00
2022-10-18T07:54:11.844Z,940.00
2022-10-18T07:55:27.027Z,1072.00
2022-10-18T07:56:11.703Z,1228.00
2022-10-18T07:57:12.010Z,1352.00
2022-10-18T07:58:11.634Z,1440.00
2022-10-18T07:59:11.949Z,1504.00
2022-10-18T08:00:11.725Z,1564.00
2022-10-18T08:01:11.714Z,1620.00
2022-10-18T08:02:11.946Z,1636.00
2022-10-18T08:03:11.644Z,1616.00
2022-10-18T08:04:16.212Z,1568.00
2022-10-18T08:05:11.717Z,1532.00
2022-10-18T08:06:11.875Z,1536.00
2022-10-18T08:07:12.007Z,1580.00
2022-10-18T08:08:11.902Z,1648.00
2022-10-18T08:09:11.510Z,1692.00
2022-10-18T08:10:11.788Z,1700.00
2022-10-18T08:11:12.046Z,1696.00
2022-10-18T08:12:11.463Z,1672.00
2022-10-18T08:13:11.390Z,1652.00
2022-10-18T08:14:11.335Z,1648.00
2022-10-18T08:15:11.391Z,1660.00
2022-10-18T08:16:11.241Z,1684.00
2022-10-18T08:17:11.295Z,1720.00
2022-10-18T08:18:13.618Z,1780.00
2022-10-18T08:19:11.325Z,1852.00
2022-10-18T08:20:12.470Z,1908.00
2022-10-18T08:21:12.846Z,1948.00
2022-10-18T08:22:19.403Z,1968.00
2022-10-18T08:23:11.190Z,2004.00
2022-10-18T08:24:12.687Z,2088.00
2022-10-18T08:25:12.351Z,2208.00
2022-10-18T08:26:11.243Z,2340.00
2022-10-18T08:27:12.183Z,2412.00
2022-10-18T08:28:11.366Z,2448.00
2022-10-18T08:29:22.947Z,2488.00
2022-10-18T08:30:12.756Z,2572.00
2022-10-18T08:31:11.255Z,2736.00
2022-10-18T08:32:11.362Z,2988.00
2022-10-18T08:33:12.053Z,3292.00
2022-10-18T08:34:14.846Z,3660.00
2022-10-18T08:35:12.251Z,4148.00
2022-10-18T08:36:11.314Z,4892.00
2022-10-18T08:37:11.376Z,6192.00
2022-10-18T08:38:15.152Z,7024.00
2022-10-18T08:39:13.944Z,6740.00
2022-10-18T08:40:11.486Z,6032.00
2022-10-18T08:41:11.228Z,5880.00
2022-10-18T08:42:11.444Z,5908.00
2022-10-18T08:43:11.180Z,5744.00
2022-10-18T08:44:11.522Z,5720.00
2022-10-18T08:45:12.876Z,5852.00
2022-10-18T08:46:12.103Z,6088.00
2022-10-18T08:47:11.067Z,6212.00
2022-10-18T08:48:11.230Z,6132.00
2022-10-18T08:49:11.558Z,5532.00
2022-10-18T08:50:12.116Z,4680.00
2022-10-18T08:51:12.743Z,4040.00
2022-10-18T08:52:11.069Z,3980.00
2022-10-18T08:53:12.129Z,4332.00
2022-10-18T08:54:11.446Z,4824.00
2022-10-18T08:55:11.007Z,5596.00
2022-10-18T08:56:11.198Z,6504.00
2022-10-18T08:57:11.663Z,7000.00
2022-10-18T08:58:12.195Z,7116.00
2022-10-18T08:59:12.846Z,7280.00
2022-10-18T09:00:11.880Z,7772.00
2022-10-18T09:01:11.457Z,8076.00
2022-10-18T09:02:12.930Z,7804.00
2022-10-18T09:03:12.471Z,7288.00
2022-10-18T09:04:11.888Z,8316.00
2022-10-18T09:05:11.316Z,9464.00
2022-10-18T09:06:12.496Z,10328.00
2022-10-18T09:07:11.801Z,11008.00
2022-10-18T09:08:11.262Z,9564.00
2022-10-18T09:09:16.679Z,7828.00
2022-10-18T09:10:11.858Z,6656.00
2022-10-18T09:11:11.056Z,5748.00
2022-10-18T09:12:10.886Z,5292.00
2022-10-18T09:13:10.811Z,5260.00
2022-10-18T09:14:13.382Z,5304.00
2022-10-18T09:15:11.670Z,5420.00
2022-10-18T09:16:11.433Z,5476.00
2022-10-18T09:17:15.770Z,5204.00
2022-10-18T09:18:12.550Z,4776.00
2022-10-18T09:19:11.407Z,4596.00
2022-10-18T09:20:11.127Z,4616.00
2022-10-18T09:21:11.128Z,4420.00
2022-10-18T09:22:10.786Z,4148.00
2022-10-18T09:23:11.504Z,3876.00
2022-10-18T09:24:10.881Z,3664.00
2022-10-18T09:25:12.034Z,3872.00
2022-10-18T09:26:11.971Z,4512.00
2022-10-18T09:27:11.221Z,4964.00
2022-10-18T09:32:26.942Z,4988.00
2022-10-18T09:33:28.077Z,4892.00
2022-10-18T09:34:28.185Z,4872.00
2022-10-18T09:35:27.938Z,5024.00
2022-10-18T09:36:27.106Z,5272.00
2022-10-18T09:37:26.944Z,5392.00
2022-10-18T09:38:27.851Z,5376.00
2022-10-18T09:39:27.671Z,5096.00
2022-10-18T09:40:28.585Z,4828.00
2022-10-18T09:41:27.561Z,4360.00
2022-10-18T09:42:27.886Z,3912.00
2022-10-18T09:43:27.413Z,3700.00
2022-10-18T09:44:57.373Z,3784.00
2022-10-18T09:45:28.443Z,4132.00
2022-10-18T09:46:29.423Z,4540.00
2022-10-18T09:48:27.966Z,5016.00
2022-10-18T09:49:27.800Z,5020.00
2022-10-18T09:50:28.113Z,5096.00
2022-10-18T09:51:27.177Z,5264.00
2022-10-18T09:52:29.160Z,5284.00
2022-10-18T09:53:29.216Z,5276.00
2022-10-18T09:54:32.725Z,5164.00
2022-10-18T09:55:39.606Z,4864.00
2022-10-18T09:56:27.242Z,4900.00
2022-10-18T09:57:27.650Z,5340.00
2022-10-18T09:58:28.092Z,5500.00
2022-10-18T09:59:27.901Z,5756.00
2022-10-18T10:00:29.848Z,5780.00
2022-10-18T10:01:29.482Z,5268.00
2022-10-18T10:02:28.377Z,4364.00
2022-10-18T10:03:36.201Z,4240.00
2022-10-18T10:10:36.653Z,7892.00
2022-10-18T10:11:26.701Z,8980.00
2022-10-18T10:12:26.884Z,10620.00
2022-10-18T10:13:26.975Z,14640.00
2022-10-18T10:14:27.097Z,21600.00
2022-10-18T10:15:29.507Z,23904.00
2022-10-18T10:16:27.655Z,25568.00
2022-10-18T10:17:26.744Z,27744.00
2022-10-18T10:18:27.572Z,28064.00
2022-10-18T10:19:26.610Z,23840.00
2022-10-18T10:20:26.692Z,19808.00
2022-10-18T10:21:26.742Z,18752.00
2022-10-18T10:22:28.407Z,17984.00
2022-10-18T10:23:29.079Z,19680.00
2022-10-18T10:24:31.068Z,23296.00
2022-10-18T10:25:27.584Z,30688.00
2022-10-18T10:26:28.584Z,27456.00
2022-10-18T10:27:48.553Z,26208.00
2022-10-18T10:28:27.226Z,20864.00
2022-10-18T10:29:43.698Z,17376.00
2022-10-18T10:30:28.289Z,15060.00
2022-10-18T10:31:26.875Z,15080.00
2022-10-18T10:33:27.040Z,18688.00
2022-10-18T10:34:30.039Z,12668.00
2022-10-18T10:35:41.485Z,10624.00
2022-10-18T10:36:27.840Z,9872.00
2022-10-18T10:37:26.687Z,7988.00
2022-10-18T10:38:26.810Z,6640.00
2022-10-18T10:39:26.942Z,6880.00
2022-10-18T10:40:28.727Z,7604.00
2022-10-18T10:42:31.559Z,9444.00
2022-10-18T10:43:42.567Z,10696.00
2022-10-18T10:44:27.729Z,11280.00
2022-10-18T10:45:27.266Z,11588.00
2022-10-18T10:46:49.765Z,12460.00
2022-10-18T10:47:53.185Z,13408.00
2022-10-18T10:48:33.144Z,39776.00
2022-10-18T10:49:39.748Z,11808.00
2022-10-18T10:50:29.052Z,11664.00
2022-10-18T10:51:27.608Z,12348.00
2022-10-18T10:52:28.322Z,13568.00
2022-10-18T10:53:27.144Z,11880.00
2022-10-18T10:54:26.551Z,12704.00
2022-10-18T10:55:35.273Z,14608.00
2022-10-18T10:59:09.325Z,14388.00
2022-10-18T11:00:00.141Z,49536.00
2022-10-18T11:00:57.428Z,29984.00
2022-10-18T11:01:58.033Z,19808.00
2022-10-18T11:03:10.895Z,21024.00
2022-10-18T11:03:58.521Z,63904.00
2022-10-18T11:05:00.159Z,25632.00
2022-10-18T11:05:58.905Z,15968.00
2022-10-18T11:06:57.274Z,14072.00
2022-10-18T11:07:58.028Z,14560.00
2022-10-18T11:08:59.333Z,11616.00
2022-10-18T11:09:59.507Z,10084.00
2022-10-18T11:10:58.035Z,10220.00
2022-10-18T11:12:11.600Z,9852.00
2022-10-18T11:12:58.379Z,14400.00
2022-10-18T11:14:13.668Z,13120.00
2022-10-18T11:14:57.999Z,70560.00
2022-10-18T11:15:56.369Z,77088.00
2022-10-18T11:16:56.571Z,78144.00
2022-10-18T11:17:56.941Z,79520.00
2022-10-18T11:18:56.874Z,80096.00
2022-10-18T11:19:56.828Z,80896.00
2022-10-18T11:20:57.210Z,80352.00
2022-10-18T11:21:57.649Z,82848.00
2022-10-18T11:22:57.529Z,82528.00
2022-10-18T11:23:58.389Z,82752.00
2022-10-18T11:25:00.090Z,83456.00
2022-10-18T11:25:58.380Z,83808.00
2022-10-18T11:26:57.904Z,84544.00
2022-10-18T11:27:57.813Z,84256.00
2022-10-18T11:28:58.526Z,86880.00
2022-10-18T11:29:57.926Z,86976.00
2022-10-18T11:30:56.552Z,63744.00
2022-10-18T11:31:57.278Z,79104.00
2022-10-18T11:33:04.013Z,80928.00
2022-10-18T11:37:36.045Z,85472.00
2022-10-18T11:38:21.987Z,83904.00
